Time;durP1;ratioP1;P1;durP2;ratioP2;P2;SDS_P1;SDS_P2;PMS_P1;PMS_P2;Temp;Humidity;BMP_temperature;BMP_pressure;BME280_temperature;BME280_humidity;BME280_pressure;Samples;Min_cycle;Max_cycle;Signal;HPM_P1;HPM_P2
2023/03/11 00:01:48;;;;;;;1.67;0.82;;;;;;;2.13;100.00;98000.44;4987513;28;20043;-76
2023/03/11 00:04:14;;;;;;;1.55;0.98;;;;;;;2.14;100.00;98009.94;4982816;28;20040;-76
2023/03/11 00:06:39;;;;;;;1.75;0.88;;;;;;;2.02;100.00;98014.44;4981063;28;20378;-76
2023/03/11 00:09:05;;;;;;;1.90;0.80;;;;;;;1.98;100.00;98014.47;4982537;28;20308;-76
2023/03/11 00:11:30;;;;;;;1.42;0.80;;;;;;;1.98;100.00;98003.22;4982742;28;20040;-76
2023/03/11 00:13:55;;;;;;;1.70;0.70;;;;;;;1.99;100.00;98010.13;4983709;28;20128;-76
2023/03/11 00:16:21;;;;;;;1.30;0.90;;;;;;;1.91;100.00;98011.97;4981173;28;20398;-76
2023/03/11 00:18:49;;;;;;;1.80;0.70;;;;;;;1.91;100.00;98017.19;4983571;28;20575;-76
2023/03/11 00:21:16;;;;;;;1.23;0.60;;;;;;;1.87;100.00;98049.31;4980551;28;20130;-76
2023/03/11 00:23:42;;;;;;;1.13;0.70;;;;;;;1.75;100.00;98022.53;4983482;28;20396;-76
2023/03/11 00:26:07;;;;;;;1.27;0.75;;;;;;;1.77;100.00;98021.69;4978835;28;20101;-76
2023/03/11 00:28:33;;;;;;;1.58;0.73;;;;;;;1.77;100.00;98019.09;4982078;28;20134;-76
2023/03/11 00:30:58;;;;;;;1.98;1.00;;;;;;;1.63;100.00;98014.91;4980132;28;20102;-76
2023/03/11 00:33:25;;;;;;;1.45;0.90;;;;;;;1.60;100.00;98020.13;4986670;28;20089;-77
2023/03/11 00:35:50;;;;;;;0.95;0.52;;;;;;;1.56;100.00;98041.84;4988245;28;20038;-76
2023/03/11 00:38:16;;;;;;;1.98;0.93;;;;;;;1.43;100.00;98028.09;4983998;28;20045;-76
2023/03/11 00:40:45;;;;;;;1.90;0.80;;;;;;;1.45;100.00;98041.09;4984364;28;20085;-76
2023/03/11 00:43:11;;;;;;;1.35;0.80;;;;;;;1.41;100.00;98047.16;4984487;28;20045;-77
2023/03/11 00:45:37;;;;;;;1.88;0.77;;;;;;;1.34;100.00;98061.09;4985468;28;20077;-76
2023/03/11 00:48:03;;;;;;;1.52;0.60;;;;;;;1.44;100.00;98065.34;4984428;28;20030;-77
2023/03/11 00:50:30;;;;;;;1.20;0.65;;;;;;;1.47;100.00;98078.31;4986552;28;20421;-77
2023/03/11 00:52:57;;;;;;;1.35;0.73;;;;;;;1.50;100.00;98083.50;4983327;28;20030;-77
2023/03/11 00:55:28;;;;;;;1.92;0.98;;;;;;;1.47;100.00;98089.59;4984546;28;20042;-76
2023/03/11 00:57:59;;;;;;;1.88;0.90;;;;;;;1.52;100.00;98129.41;4983440;28;20074;-75
2023/03/11 01:00:29;;;;;;;1.67;0.77;;;;;;;1.60;100.00;98105.94;4987140;28;20038;-76
2023/03/11 01:02:55;;;;;;;1.40;0.68;;;;;;;1.56;100.00;98132.81;4984400;28;20031;-76
2023/03/11 01:05:26;;;;;;;1.55;0.77;;;;;;;1.45;100.00;98150.25;4985818;28;20115;-78
2023/03/11 01:07:51;;;;;;;1.20;0.50;;;;;;;1.40;100.00;98134.69;4986064;28;20042;-77
2023/03/11 01:10:17;;;;;;;1.95;0.95;;;;;;;1.30;100.00;98159.88;4984777;28;20035;-76
2023/03/11 01:12:43;;;;;;;1.63;0.60;;;;;;;1.24;100.00;98167.72;4983047;28;20400;-76
2023/03/11 01:15:16;;;;;;;1.45;0.52;;;;;;;1.09;100.00;98181.66;4986399;28;20045;-76
2023/03/11 01:17:41;;;;;;;;;;;;;;;1.02;100.00;98184.28;4986448;28;20125;-76
2023/03/11 01:20:09;;;;;;;1.67;0.60;;;;;;;0.97;100.00;98179.16;4983406;28;19914;-77
2023/03/11 01:22:35;;;;;;;0.90;0.60;;;;;;;0.91;100.00;98201.69;4992759;28;20042;-77
2023/03/11 01:25:00;;;;;;;1.98;0.98;;;;;;;0.91;100.00;98212.94;4999209;28;20041;-77
2023/03/11 01:27:27;;;;;;;2.23;1.00;;;;;;;0.86;100.00;98200.00;4986394;28;20516;-79
2023/03/11 01:29:52;;;;;;;2.33;0.97;;;;;;;0.86;100.00;98209.47;4981154;28;20052;-76
2023/03/11 01:32:17;;;;;;;2.90;1.17;;;;;;;0.91;100.00;98227.66;4986093;28;20030;-76
2023/03/11 01:34:43;;;;;;;2.77;1.27;;;;;;;0.90;100.00;98236.31;4984360;28;20042;-76
2023/03/11 01:37:08;;;;;;;1.87;1.00;;;;;;;0.91;100.00;98243.22;4981368;28;20039;-77
2023/03/11 01:39:34;;;;;;;2.28;1.10;;;;;;;0.94;100.00;98266.59;4985442;28;20034;-78
2023/03/11 01:41:59;;;;;;;2.47;1.23;;;;;;;0.88;100.00;98244.09;4972704;28;20078;-76
2023/03/11 01:44:25;;;;;;;3.30;1.50;;;;;;;0.89;100.00;98251.00;4968585;28;20034;-77
2023/03/11 01:46:51;;;;;;;2.33;1.20;;;;;;;0.82;100.00;98267.50;4967676;28;20440;-77
2023/03/11 01:49:22;;;;;;;3.13;1.13;;;;;;;0.85;100.00;98263.16;4982128;28;20085;-77
2023/03/11 01:51:51;;;;;;;1.93;1.10;;;;;;;0.83;100.00;98269.22;4984172;28;20033;-77
2023/03/11 01:54:27;;;;;;;2.28;1.23;;;;;;;0.82;100.00;98296.94;4989619;28;20041;-77
2023/03/11 01:56:54;;;;;;;3.17;1.30;;;;;;;0.78;100.00;98290.00;4983355;28;20034;-76
2023/03/11 01:59:46;;;;;;;2.30;1.20;;;;;;;0.81;100.00;98290.03;4981112;28;20031;-77
2023/03/11 02:02:30;;;;;;;3.72;1.50;;;;;;;0.71;100.00;98303.91;4976040;28;20125;-77
2023/03/11 02:05:00;;;;;;;2.83;1.10;;;;;;;0.70;100.00;98322.91;4984343;28;20038;-77
2023/03/11 02:07:25;;;;;;;2.50;1.07;;;;;;;0.62;100.00;98351.50;4983719;28;20043;-79
2023/03/11 02:09:51;;;;;;;1.83;1.07;;;;;;;0.59;100.00;98329.88;4985642;28;20034;-78
2023/03/11 02:12:16;;;;;;;6.30;1.10;;;;;;;0.58;100.00;98335.94;4982781;28;20445;-77
2023/03/11 02:14:47;;;;;;;2.67;1.10;;;;;;;0.55;100.00;98380.03;4985853;28;20046;-78
2023/03/11 02:17:12;;;;;;;2.43;1.00;;;;;;;0.44;100.00;98347.16;4988726;28;20038;-78
2023/03/11 02:20:05;;;;;;;1.60;0.83;;;;;;;0.44;100.00;98362.75;4980972;28;20085;-77
2023/03/11 02:22:34;;;;;;;1.87;1.00;;;;;;;0.41;100.00;98367.94;4969903;28;20070;-77
2023/03/11 02:25:08;;;;;;;2.65;1.05;;;;;;;0.39;100.00;98367.09;4990941;28;20096;-77
2023/03/11 02:27:38;;;;;;;2.70;1.00;;;;;;;0.44;100.00;98387.84;4985319;28;20049;-78
2023/03/11 02:30:07;;;;;;;2.47;1.00;;;;;;;0.37;100.00;98402.56;4984011;28;20039;-78
2023/03/11 02:32:35;;;;;;;2.30;1.07;;;;;;;0.43;100.00;98399.09;4993309;28;20021;-78
2023/03/11 02:35:01;;;;;;;2.33;1.10;;;;;;;0.42;100.00;98406.03;4982264;28;20037;-77
2023/03/11 02:37:26;;;;;;;2.60;1.03;;;;;;;0.51;100.00;98446.69;4984872;28;20039;-77
2023/03/11 02:40:22;;;;;;;2.43;1.10;;;;;;;0.54;100.00;98425.03;4983853;28;20042;-78
2023/03/11 02:42:53;;;;;;;2.90;1.17;;;;;;;0.52;100.00;98429.38;4986595;28;20045;-77
2023/03/11 02:45:23;;;;;;;2.40;1.07;;;;;;;0.52;100.00;98466.56;4982788;28;20101;-77
2023/03/11 02:47:50;;;;;;;4.77;1.57;;;;;;;0.51;100.00;98513.31;4982376;28;20512;-77
2023/03/11 02:50:17;;;;;;;3.27;1.57;;;;;;;0.52;100.00;98461.38;4983823;28;20027;-77
2023/03/11 02:52:44;;;;;;;3.53;1.43;;;;;;;0.49;100.00;98483.88;4981080;28;20033;-78
2023/03/11 02:55:14;;;;;;;4.77;1.90;;;;;;;0.46;100.00;98478.69;4983037;28;20030;-78
2023/03/11 02:57:41;;;;;;;4.77;1.77;;;;;;;0.43;100.00;98485.59;4981777;28;20035;-78
2023/03/11 03:00:13;;;;;;;2.53;1.30;;;;;;;0.41;100.00;98492.50;4982211;28;20041;-78
2023/03/11 03:02:43;;;;;;;6.70;1.73;;;;;;;0.40;100.00;98521.06;4988419;28;20042;-78
2023/03/11 03:05:09;;;;;;;3.23;1.37;;;;;;;0.38;100.00;98541.81;4985586;28;20095;-77
2023/03/11 03:07:36;;;;;;;2.97;1.40;;;;;;;0.34;100.00;98544.38;4981750;28;20125;-76
2023/03/11 03:10:02;;;;;;;4.33;1.00;;;;;;;0.35;100.00;98539.22;4982579;28;20382;-76
2023/03/11 03:12:29;;;;;;;4.60;1.17;;;;;;;0.35;100.00;98562.56;4968438;28;20030;-77
2023/03/11 03:14:54;;;;;;;2.97;1.00;;;;;;;0.34;100.00;98557.34;4983298;28;20045;-76
2023/03/11 03:17:19;;;;;;;3.73;1.23;;;;;;;0.38;100.00;98577.28;4980452;28;20174;-76
2023/03/11 03:19:46;;;;;;;3.47;1.17;;;;;;;0.34;100.00;98584.19;4981698;28;20034;-76
2023/03/11 03:22:11;;;;;;;8.70;2.03;;;;;;;0.38;100.00;98616.22;4982793;28;20479;-76
2023/03/11 03:24:39;;;;;;;4.20;1.50;;;;;;;0.37;100.00;98592.00;4982990;28;20034;-76
2023/03/11 03:27:05;;;;;;;3.57;1.37;;;;;;;0.39;100.00;98612.75;4979630;28;20417;-75
2023/03/11 03:29:31;;;;;;;3.40;1.40;;;;;;;0.36;100.00;98626.56;4985846;28;20038;-76
2023/03/11 03:31:56;;;;;;;3.77;1.50;;;;;;;0.38;100.00;98639.56;4980431;28;20038;-76
2023/03/11 03:34:22;;;;;;;6.43;1.73;;;;;;;0.38;100.00;98643.03;4982776;28;20501;-76
2023/03/11 03:36:47;;;;;;;3.97;1.57;;;;;;;0.39;100.00;98664.63;4980503;28;20063;-76
2023/03/11 03:39:13;;;;;;;4.57;1.80;;;;;;;0.42;100.00;98680.25;4982437;28;20481;-75
2023/03/11 03:41:38;;;;;;;3.13;1.30;;;;;;;0.41;100.00;98687.16;4980025;28;20085;-76
2023/03/11 03:44:05;;;;;;;4.97;1.80;;;;;;;0.43;100.00;98695.81;4982414;28;20030;-76
2023/03/11 03:46:32;;;;;;;3.53;1.50;;;;;;;0.38;100.00;98694.06;4979340;28;20402;-76
2023/03/11 03:48:58;;;;;;;3.80;1.67;;;;;;;0.37;100.00;98723.47;4982452;28;20043;-76
2023/03/11 03:51:24;;;;;;;5.27;2.10;;;;;;;0.35;100.00;98743.34;4981866;28;20530;-76
2023/03/11 03:53:59;;;;;;;3.43;1.50;;;;;;;0.34;100.00;98734.72;4966536;28;20057;-76
2023/03/11 03:56:25;;;;;;;4.80;1.50;;;;;;;0.35;100.00;98731.25;4982833;28;20074;-76
2023/03/11 03:58:52;;;;;;;6.67;2.27;;;;;;;0.35;100.00;98736.44;4981342;28;20030;-76
2023/03/11 04:01:18;;;;;;;3.63;1.87;;;;;;;0.34;100.00;98750.28;4970728;28;20109;-75
2023/03/11 04:03:43;;;;;;;2.97;1.73;;;;;;;0.30;100.00;98748.50;4980560;28;20477;-77
2023/03/11 04:06:20;;;;;;;6.40;2.57;;;;;;;0.28;100.00;98764.91;4984960;28;20525;-76
2023/03/11 04:08:53;;;;;;;6.60;3.20;;;;;;;0.27;100.00;98779.63;4983628;28;20125;-75
2023/03/11 04:11:21;;;;;;;6.30;2.70;;;;;;;0.28;100.00;98804.72;4985120;28;20101;-76
2023/03/11 04:13:47;;;;;;;6.40;3.53;;;;;;;0.25;100.00;98807.28;4989930;28;20042;-76
2023/03/11 04:16:17;;;;;;;5.40;2.83;;;;;;;0.27;100.00;98802.97;4993419;28;20031;-76
2023/03/11 04:18:43;;;;;;;7.13;3.67;;;;;;;0.27;100.00;98800.38;4966946;28;20038;-76
2023/03/11 04:21:08;;;;;;;7.47;3.17;;;;;;;0.29;100.00;98813.34;4985175;28;20129;-75
2023/03/11 04:23:33;;;;;;;12.37;3.37;;;;;;;0.26;100.00;98811.59;4989696;28;20390;-76
2023/03/11 04:26:00;;;;;;;5.93;3.07;;;;;;;0.27;100.00;98841.91;4993451;28;20083;-75
2023/03/11 04:28:25;;;;;;;4.60;2.33;;;;;;;0.25;100.00;98838.41;4983760;28;20086;-75
2023/03/11 04:30:51;;;;;;;6.00;3.13;;;;;;;0.25;100.00;98833.22;4987231;28;20081;-74
2023/03/11 04:33:17;;;;;;;7.47;2.23;;;;;;;0.22;100.00;98859.16;4982105;28;20035;-74
2023/03/11 04:35:42;;;;;;;5.00;3.03;;;;;;;0.26;100.00;98841.88;4983382;28;20038;-74
2023/03/11 04:38:08;;;;;;;6.07;3.10;;;;;;;0.25;100.00;98863.50;4985811;28;20046;-73
2023/03/11 04:40:36;;;;;;;5.80;3.67;;;;;;;0.30;100.00;98867.00;4983698;28;20573;-74
2023/03/11 04:43:01;;;;;;;8.77;3.10;;;;;;;0.24;100.00;98878.22;4985246;28;20096;-75
2023/03/11 04:45:27;;;;;;;4.90;2.77;;;;;;;0.25;100.00;98873.88;4982596;28;20497;-75
2023/03/11 04:47:55;;;;;;;5.57;2.70;;;;;;;0.24;100.00;98886.00;4969841;28;20031;-74
2023/03/11 04:50:20;;;;;;;7.10;3.37;;;;;;;0.22;100.00;98880.78;4984263;28;20041;-75
2023/03/11 04:52:46;;;;;;;8.17;3.80;;;;;;;0.22;100.00;98896.34;4985561;28;20018;-75
2023/03/11 04:55:12;;;;;;;7.27;3.47;;;;;;;0.18;100.00;98898.88;4983630;28;20038;-75
2023/03/11 04:57:39;;;;;;;7.63;3.33;;;;;;;0.25;100.00;98921.44;4975585;28;20113;-75
2023/03/11 05:00:09;;;;;;;6.13;2.87;;;;;;;0.24;100.00;98908.44;4983323;28;20034;-75
2023/03/11 05:02:35;;;;;;;7.30;3.80;;;;;;;0.20;100.00;98907.56;4982654;28;20038;-75
2023/03/11 05:05:01;;;;;;;6.23;3.40;;;;;;;0.21;100.00;98912.78;4985350;28;20038;-75
2023/03/11 05:07:27;;;;;;;6.83;3.67;;;;;;;0.20;100.00;98956.84;4984921;28;20092;-75
2023/03/11 05:09:52;;;;;;;7.63;3.90;;;;;;;0.20;100.00;98923.13;4982005;28;20804;-76
2023/03/11 05:12:18;;;;;;;7.43;3.63;;;;;;;0.21;100.00;98938.72;4985895;28;20625;-77
2023/03/11 05:14:47;;;;;;;6.07;3.23;;;;;;;0.23;100.00;98956.88;4981931;28;20069;-77
2023/03/11 05:17:13;;;;;;;8.03;4.20;;;;;;;0.20;100.00;98991.44;4987803;28;20067;-76
2023/03/11 05:19:40;;;;;;;7.00;3.93;;;;;;;0.23;100.00;98993.22;4988461;28;20084;-77
2023/03/11 05:22:11;;;;;;;7.57;4.28;;;;;;;0.21;100.00;98974.19;4985953;28;20038;-76
2023/03/11 05:24:37;;;;;;;11.73;4.57;;;;;;;0.21;100.00;98966.41;4988258;28;20043;-76
2023/03/11 05:27:03;;;;;;;8.17;4.17;;;;;;;0.20;100.00;98972.44;4983685;28;20515;-76
2023/03/11 05:29:29;;;;;;;10.53;5.60;;;;;;;0.19;100.00;98984.53;4980253;28;20039;-76
2023/03/11 05:31:54;;;;;;;11.97;5.57;;;;;;;0.27;100.00;98982.03;4987148;28;20105;-77
2023/03/11 05:34:21;;;;;;;8.97;5.47;;;;;;;0.20;100.00;99003.56;4982800;28;20497;-77
2023/03/11 05:36:46;;;;;;;9.87;5.33;;;;;;;0.23;100.00;99003.59;4984565;28;20463;-77
2023/03/11 05:39:12;;;;;;;8.60;5.57;;;;;;;0.17;100.00;99022.56;4982722;28;20130;-77
2023/03/11 05:41:37;;;;;;;7.40;5.27;;;;;;;0.18;100.00;99018.22;4983797;28;20130;-76
2023/03/11 05:44:03;;;;;;;12.50;6.23;;;;;;;0.18;100.00;99018.22;4984047;28;20034;-77
2023/03/11 05:46:29;;;;;;;9.27;5.53;;;;;;;0.20;100.00;99027.78;4983695;28;20122;-76
2023/03/11 05:48:55;;;;;;;7.77;5.10;;;;;;;0.18;100.00;99020.81;4982812;28;20046;-77
2023/03/11 05:51:21;;;;;;;9.83;6.00;;;;;;;0.22;100.00;99043.38;4981804;28;20030;-77
2023/03/11 05:53:48;;;;;;;9.27;6.23;;;;;;;0.21;100.00;99052.88;4984571;28;20035;-77
2023/03/11 05:56:19;;;;;;;11.03;6.23;;;;;;;0.22;100.00;99065.00;4984126;28;20038;-77
2023/03/11 05:58:45;;;;;;;8.80;6.20;;;;;;;0.21;100.00;99065.88;4985301;28;20076;-77
2023/03/11 06:01:13;;;;;;;11.53;7.53;;;;;;;0.24;100.00;99100.47;4985317;28;20049;-76
2023/03/11 06:03:40;;;;;;;10.63;6.73;;;;;;;0.24;100.00;99080.59;4984829;28;20178;-76
2023/03/11 06:06:09;;;;;;;11.27;7.33;;;;;;;0.28;100.00;99077.16;4982496;28;20078;-76
2023/03/11 06:08:35;;;;;;;12.37;8.03;;;;;;;0.27;100.00;99088.41;4984922;28;20026;-76
2023/03/11 06:11:09;;;;;;;11.03;7.50;;;;;;;0.31;100.00;99113.53;4983517;28;20113;-76
2023/03/11 06:13:36;;;;;;;12.33;7.13;;;;;;;0.28;100.00;99108.31;4991424;28;20109;-76
2023/03/11 06:16:03;;;;;;;9.90;7.27;;;;;;;0.29;100.00;99115.25;4980854;28;20524;-76
2023/03/11 06:18:28;;;;;;;11.13;8.17;;;;;;;0.30;100.00;99116.13;4984756;28;20448;-76
2023/03/11 06:20:57;;;;;;;10.47;7.03;;;;;;;0.34;100.00;99116.19;4980204;28;20042;-76
2023/03/11 06:23:23;;;;;;;9.33;6.60;;;;;;;0.32;100.00;99154.22;4984295;28;20042;-76
2023/03/11 06:25:59;;;;;;;11.80;8.33;;;;;;;0.37;100.00;99136.13;4987221;28;20034;-76
2023/03/11 06:28:28;;;;;;;9.87;5.87;;;;;;;0.36;100.00;99171.56;4981768;28;20054;-76
2023/03/11 06:30:55;;;;;;;7.80;4.43;;;;;;;0.35;100.00;99151.66;4984936;28;20030;-77
2023/03/11 06:33:24;;;;;;;9.47;5.03;;;;;;;0.42;100.00;99169.06;4966378;28;20038;-76
2023/03/11 06:36:01;;;;;;;7.70;3.80;;;;;;;0.50;100.00;99157.88;4985037;28;20030;-77
2023/03/11 06:38:27;;;;;;;11.00;5.83;;;;;;;0.54;100.00;99183.91;4983777;28;20048;-77
2023/03/11 06:40:52;;;;;;;8.13;4.63;;;;;;;0.54;100.00;99180.44;4979586;28;20117;-77
2023/03/11 06:43:18;;;;;;;9.03;4.87;;;;;;;0.53;100.00;99226.31;4982176;28;20553;-76
2023/03/11 06:45:45;;;;;;;10.60;5.03;;;;;;;0.56;100.00;99212.50;4982113;28;20082;-77
2023/03/11 06:48:10;;;;;;;9.80;4.70;;;;;;;0.58;100.00;99209.06;4981870;28;20493;-76
2023/03/11 06:50:37;;;;;;;9.10;5.17;;;;;;;0.60;100.00;99219.44;4982444;28;20026;-75
2023/03/11 06:53:05;;;;;;;9.20;5.07;;;;;;;0.58;100.00;99221.19;4983206;28;20041;-76
2023/03/11 06:55:31;;;;;;;11.70;4.90;;;;;;;0.56;100.00;99260.09;4981778;28;20041;-76
2023/03/11 06:57:57;;;;;;;10.10;5.40;;;;;;;0.61;100.00;99229.00;4980744;28;20038;-76
2023/03/11 07:00:24;;;;;;;9.57;5.30;;;;;;;0.69;100.00;99261.13;4987429;28;20030;-76
2023/03/11 07:02:54;;;;;;;9.63;5.50;;;;;;;0.65;100.00;99238.56;4979753;28;20031;-76
2023/03/11 07:05:20;;;;;;;10.00;5.20;;;;;;;0.65;100.00;99242.06;4982911;28;20041;-76
2023/03/11 07:07:47;;;;;;;10.10;5.47;;;;;;;0.67;100.00;99257.63;4979375;28;20100;-75
2023/03/11 07:10:12;;;;;;;10.90;5.87;;;;;;;0.67;100.00;99283.59;4986616;28;20752;-75
2023/03/11 07:12:38;;;;;;;12.10;6.40;;;;;;;0.66;100.00;99276.69;4983116;28;20038;-75
2023/03/11 07:15:04;;;;;;;13.93;6.10;;;;;;;0.67;100.00;99288.78;4982639;28;20122;-75
2023/03/11 07:17:34;;;;;;;11.67;5.73;;;;;;;0.64;100.00;99289.63;4982229;28;20030;-74
2023/03/11 07:20:00;;;;;;;11.53;5.77;;;;;;;0.65;100.00;99300.88;4980072;28;20041;-75
2023/03/11 07:22:26;;;;;;;9.87;5.80;;;;;;;0.64;100.00;99296.56;4984142;28;20038;-75
2023/03/11 07:24:51;;;;;;;10.87;5.67;;;;;;;0.61;100.00;99310.34;4982883;28;20041;-75
2023/03/11 07:27:17;;;;;;;11.90;6.13;;;;;;;0.64;100.00;99314.72;4981722;28;20069;-75
2023/03/11 07:29:42;;;;;;;12.53;6.17;;;;;;;0.66;100.00;99307.84;4981198;28;20117;-75
2023/03/11 07:32:08;;;;;;;11.97;6.00;;;;;;;0.68;100.00;99313.91;4984022;28;20546;-75
2023/03/11 07:34:34;;;;;;;11.17;6.27;;;;;;;0.72;100.00;99325.22;4984717;28;20062;-75
2023/03/11 07:36:59;;;;;;;12.07;6.00;;;;;;;0.73;100.00;99330.41;4982278;28;20535;-74
2023/03/11 07:39:25;;;;;;;10.73;6.27;;;;;;;0.78;100.00;99348.66;4982072;28;20030;-75
2023/03/11 07:41:50;;;;;;;11.10;5.97;;;;;;;0.82;100.00;99355.66;4987978;28;20081;-75
2023/03/11 07:44:16;;;;;;;10.03;5.67;;;;;;;0.74;100.00;99358.16;4988506;28;20030;-74
2023/03/11 07:46:42;;;;;;;10.83;5.67;;;;;;;0.78;100.00;99354.72;4991886;28;20523;-74
2023/03/11 07:49:07;;;;;;;9.87;5.90;;;;;;;0.80;100.00;99360.84;4988730;28;20101;-74
2023/03/11 07:51:35;;;;;;;13.43;6.27;;;;;;;0.82;100.00;99360.88;4988264;28;20062;-75
2023/03/11 07:54:01;;;;;;;10.82;5.60;;;;;;;0.85;100.00;99369.56;4992772;28;20031;-75
2023/03/11 07:56:29;;;;;;;14.02;5.70;;;;;;;0.86;100.00;99368.72;4989429;28;20373;-75
2023/03/11 07:58:57;;;;;;;10.93;5.70;;;;;;;0.93;100.00;99400.84;4988324;28;20097;-75
2023/03/11 08:01:24;;;;;;;10.10;5.47;;;;;;;0.91;100.00;99380.88;4989804;28;20045;-75
2023/03/11 08:03:55;;;;;;;11.60;5.80;;;;;;;0.94;100.00;99402.59;4986723;28;20042;-76
2023/03/11 08:06:24;;;;;;;10.25;5.75;;;;;;;0.91;100.00;99404.28;4990368;28;20030;-76
2023/03/11 08:08:50;;;;;;;12.35;5.72;;;;;;;0.97;100.00;99401.75;4988363;28;20104;-76
2023/03/11 08:11:16;;;;;;;11.23;6.40;;;;;;;1.03;100.00;99412.25;4988242;28;20520;-76
2023/03/11 08:13:43;;;;;;;10.93;5.77;;;;;;;1.06;100.00;99433.94;4989443;28;20149;-76
2023/03/11 08:16:11;;;;;;;10.30;5.65;;;;;;;1.13;100.00;99421.94;4990322;28;20039;-75
2023/03/11 08:18:37;;;;;;;10.32;5.60;;;;;;;1.13;100.00;99432.31;4990079;28;20129;-76
2023/03/11 08:21:10;;;;;;;10.73;5.60;;;;;;;1.26;100.00;99430.78;4988670;28;20125;-75
2023/03/11 08:23:36;;;;;;;12.68;6.15;;;;;;;1.20;100.00;99441.06;4986512;28;20115;-76
2023/03/11 08:26:07;;;;;;;13.05;6.47;;;;;;;1.25;100.00;99429.88;4989955;28;20116;-76
2023/03/11 08:28:32;;;;;;;11.75;6.10;;;;;;;1.22;100.00;99436.75;4991095;28;20097;-76
2023/03/11 08:30:58;;;;;;;11.48;5.85;;;;;;;1.29;100.00;99439.47;4988555;28;20043;-76
2023/03/11 08:33:23;;;;;;;12.02;6.55;;;;;;;1.35;100.00;99446.47;4988969;28;20077;-76
2023/03/11 08:35:49;;;;;;;10.52;5.65;;;;;;;1.45;100.00;99457.88;4987451;28;20039;-77
2023/03/11 08:38:14;;;;;;;12.82;7.10;;;;;;;1.44;100.00;99464.81;4989972;28;20042;-76
2023/03/11 08:40:39;;;;;;;12.23;6.93;;;;;;;1.64;100.00;99467.66;4989550;28;20138;-76
2023/03/11 08:43:05;;;;;;;9.52;5.35;;;;;;;1.61;100.00;99484.97;4989935;28;20113;-76
2023/03/11 08:45:30;;;;;;;13.07;6.43;;;;;;;1.65;100.00;99473.72;4988532;28;20559;-76
2023/03/11 08:47:55;;;;;;;10.77;6.45;;;;;;;1.91;100.00;99476.66;4987725;28;20042;-77
2023/03/11 08:50:21;;;;;;;10.48;6.00;;;;;;;1.97;100.00;99472.41;4989485;28;20046;-76
2023/03/11 08:52:46;;;;;;;10.45;5.85;;;;;;;2.04;100.00;99475.06;4987352;28;20031;-77
2023/03/11 08:55:15;;;;;;;11.02;6.80;;;;;;;2.16;100.00;99491.69;4991817;28;20043;-77
2023/03/11 08:57:41;;;;;;;12.80;6.72;;;;;;;2.21;100.00;99493.50;4985842;28;20378;-77
2023/03/11 09:00:08;;;;;;;11.73;6.63;;;;;;;2.25;100.00;99503.06;4984694;28;20046;-77
2023/03/11 09:02:33;;;;;;;14.10;7.40;;;;;;;2.34;100.00;99490.16;4987343;28;20112;-77
2023/03/11 09:04:59;;;;;;;11.35;6.85;;;;;;;2.28;100.00;99509.19;4985190;28;20449;-78
2023/03/11 09:07:24;;;;;;;11.00;6.45;;;;;;;2.09;100.00;99520.22;4986953;28;20655;-78
2023/03/11 09:09:49;;;;;;;10.85;6.60;;;;;;;1.96;100.00;99533.13;4984859;28;20042;-78
2023/03/11 09:12:15;;;;;;;11.13;6.22;;;;;;;1.98;100.00;99530.53;4988162;28;20045;-78
2023/03/11 09:14:41;;;;;;;12.90;6.50;;;;;;;2.06;100.00;99530.63;4983274;28;20043;-78
2023/03/11 09:17:07;;;;;;;12.60;6.65;;;;;;;2.10;100.00;99540.22;4985766;28;20091;-78
2023/03/11 09:19:33;;;;;;;12.23;6.70;;;;;;;2.15;100.00;99533.34;4983635;28;20034;-78
2023/03/11 09:22:02;;;;;;;12.32;6.18;;;;;;;2.10;100.00;99551.50;4986798;28;20608;-78
2023/03/11 09:24:28;;;;;;;11.10;6.85;;;;;;;2.03;100.00;99593.91;4990052;28;20511;-78
2023/03/11 09:26:54;;;;;;;11.80;6.00;;;;;;;1.77;100.00;99549.34;4986492;28;20031;-78
2023/03/11 09:29:19;;;;;;;12.90;7.22;;;;;;;1.86;100.00;99558.97;4981270;28;20039;-77
2023/03/11 09:31:45;;;;;;;12.07;6.75;;;;;;;1.96;100.00;99563.44;4987022;28;20043;-77
2023/03/11 09:34:11;;;;;;;11.32;6.45;;;;;;;1.77;100.00;99557.13;4985200;28;20171;-76
2023/03/11 09:36:40;;;;;;;16.77;6.90;;;;;;;1.71;100.00;99607.34;4985282;28;20041;-77
2023/03/11 09:39:05;;;;;;;13.27;7.00;;;;;;;1.66;100.00;99571.72;4983548;28;20079;-77
2023/03/11 09:41:40;;;;;;;11.25;6.60;;;;;;;1.75;100.00;99608.25;4984630;28;20449;-76
2023/03/11 09:44:20;;;;;;;11.68;6.75;;;;;;;1.89;100.00;99590.28;4986063;28;20535;-77
2023/03/11 09:47:20;;;;;;;11.07;6.50;;;;;;;1.81;100.00;99597.97;4982852;28;20190;-77
2023/03/11 09:50:20;;;;;;;10.43;6.53;;;;;;;1.89;100.00;99591.13;4972512;28;20497;-77
2023/03/11 09:53:02;;;;;;;10.48;3.53;;;;;;;1.89;100.00;99606.75;4984778;28;20105;-77
2023/03/11 09:55:43;;;;;;;7.32;3.50;;;;;;;1.90;100.00;99612.81;4986423;28;20034;-77
2023/03/11 09:58:44;;;;;;;7.60;3.30;;;;;;;1.85;100.00;99623.16;4983811;28;20045;-77
2023/03/11 10:01:23;;;;;;;9.05;3.13;;;;;;;1.89;100.00;99624.09;4981853;28;20066;-76
2023/03/11 10:03:52;;;;;;;9.98;3.58;;;;;;;1.96;100.00;99633.72;4983085;28;20442;-76
2023/03/11 10:06:24;;;;;;;7.97;3.72;;;;;;;2.12;100.00;99614.88;4985546;28;20039;-76
2023/03/11 10:09:05;;;;;;;7.13;3.15;;;;;;;2.31;100.00;99630.72;4985880;28;20122;-76
2023/03/11 10:11:49;;;;;;;9.48;3.33;;;;;;;2.32;100.00;99629.88;4983575;28;20045;-77
2023/03/11 10:14:27;;;;;;;6.97;3.40;;;;;;;2.36;100.00;99640.34;4982307;28;20504;-76
2023/03/11 10:17:05;;;;;;;6.68;3.50;;;;;;;2.60;100.00;99652.78;4985484;28;20053;-77
2023/03/11 10:19:53;;;;;;;6.97;2.95;;;;;;;2.64;100.00;99646.75;4982132;28;20154;-77
2023/03/11 10:22:54;;;;;;;7.95;3.47;;;;;;;2.86;100.00;99636.59;4984237;28;20031;-78
2023/03/11 10:25:41;;;;;;;11.30;3.97;;;;;;;3.02;100.00;99651.50;4978664;28;20055;-78
2023/03/11 10:28:16;;;;;;;9.38;3.47;;;;;;;3.03;100.00;99655.84;4983064;28;20027;-78
2023/03/11 10:30:45;;;;;;;8.77;3.33;;;;;;;3.04;100.00;99664.56;4982168;28;20043;-78
2023/03/11 10:33:21;;;;;;;7.18;2.97;;;;;;;3.19;100.00;99649.06;4984916;28;20027;-78
2023/03/11 10:35:52;;;;;;;7.85;2.70;;;;;;;3.21;100.00;99662.13;4985067;28;20042;-78
2023/03/11 10:38:25;;;;;;;8.02;3.53;;;;;;;2.91;100.00;99653.16;4982647;28;20038;-78
2023/03/11 10:40:55;;;;;;;7.05;2.50;;;;;;;2.72;100.00;99659.84;4984931;28;20041;-79
2023/03/11 10:43:31;;;;;;;5.60;2.42;;;;;;;2.85;100.00;99650.44;4984222;28;20039;-79
2023/03/11 10:45:57;;;;;;;5.63;2.42;;;;;;;3.12;100.00;99655.09;4982915;28;20035;-79
2023/03/11 10:48:24;;;;;;;6.75;2.70;;;;;;;3.05;100.00;99668.91;4986414;28;20046;-79
2023/03/11 10:51:25;;;;;;;7.88;2.40;;;;;;;3.05;100.00;99654.16;4986811;28;20030;-79
2023/03/11 10:53:59;;;;;;;5.65;2.40;;;;;;;2.97;100.00;99667.97;4965053;28;20117;-79
2023/03/11 10:56:39;;;;;;;6.00;2.60;;;;;;;3.17;100.00;99666.44;4985029;28;20038;-79
2023/03/11 10:59:21;;;;;;;7.18;2.85;;;;;;;3.25;100.00;99662.19;4985930;28;20038;-80
2023/03/11 11:01:58;;;;;;;6.47;2.30;;;;;;;3.29;100.00;99681.31;4986517;28;20030;-80
2023/03/11 11:04:34;;;;;;;7.22;2.83;;;;;;;3.22;100.00;99697.75;4983465;28;20507;-80
2023/03/11 11:07:30;;;;;;;8.30;3.10;;;;;;;2.93;100.00;99681.81;4985450;28;20030;-81
2023/03/11 11:10:10;;;;;;;8.80;2.35;;;;;;;2.84;100.00;99711.25;4984616;28;20038;-79
2023/03/11 11:12:47;;;;;;;8.20;2.70;;;;;;;2.74;100.00;99696.38;4985457;28;20044;-78
2023/03/11 11:15:22;;;;;;;6.72;2.72;;;;;;;2.87;100.00;99698.25;4984542;28;20050;-78
2023/03/11 11:17:49;;;;;;;7.72;2.78;;;;;;;2.78;100.00;99700.78;4984647;28;20037;-78
2023/03/11 11:20:18;;;;;;;7.35;2.80;;;;;;;2.77;100.00;99697.25;4980177;28;20030;-78
2023/03/11 11:22:49;;;;;;;6.78;2.58;;;;;;;2.94;100.00;99697.47;4981110;28;20035;-77
2023/03/11 11:25:29;;;;;;;4.85;1.95;;;;;;;3.11;100.00;99707.22;4984893;28;20043;-78
2023/03/11 11:27:58;;;;;;;6.93;2.72;;;;;;;2.99;100.00;99705.34;4984617;28;20078;-77
2023/03/11 11:30:28;;;;;;;6.65;2.17;;;;;;;2.92;100.00;99704.41;4987734;28;20054;-78
2023/03/11 11:32:54;;;;;;;4.93;2.10;;;;;;;2.76;100.00;99718.13;4984934;28;20067;-78
2023/03/11 11:35:23;;;;;;;4.82;1.80;;;;;;;2.71;100.00;99722.38;4984995;28;20516;-78
2023/03/11 11:37:58;;;;;;;11.60;2.53;;;;;;;2.69;100.00;99713.69;4983788;28;20045;-77
2023/03/11 11:40:31;;;;;;;7.10;3.25;;;;;;;2.63;100.00;99717.09;4982940;28;20405;-78